sensor_id;sensor_type;location;lat;lon;timestamp;P1;durP1;ratioP1;P2;durP2;ratioP2
7887;SDS011;3989;48.810;9.208;2023-02-17T00:02:18;3.93;;;3.63;;
7887;SDS011;3989;48.810;9.208;2023-02-17T00:04:45;3.30;;;3.10;;
7887;SDS011;3989;48.810;9.208;2023-02-17T00:07:12;3.87;;;3.27;;
7887;SDS011;3989;48.810;9.208;2023-02-17T00:09:39;3.93;;;3.20;;
7887;SDS011;3989;48.810;9.208;2023-02-17T00:12:05;3.70;;;3.40;;
7887;SDS011;3989;48.810;9.208;2023-02-17T00:14:32;3.20;;;3.00;;
7887;SDS011;3989;48.810;9.208;2023-02-17T00:16:59;3.77;;;3.40;;
7887;SDS011;3989;48.810;9.208;2023-02-17T00:19:25;4.87;;;3.20;;
7887;SDS011;3989;48.810;9.208;2023-02-17T00:21:54;3.63;;;3.33;;
7887;SDS011;3989;48.810;9.208;2023-02-17T00:24:23;4.13;;;3.70;;
7887;SDS011;3989;48.810;9.208;2023-02-17T00:26:50;5.10;;;2.80;;
7887;SDS011;3989;48.810;9.208;2023-02-17T00:29:16;3.63;;;3.33;;
7887;SDS011;3989;48.810;9.208;2023-02-17T00:31:43;3.60;;;3.30;;
7887;SDS011;3989;48.810;9.208;2023-02-17T00:34:10;3.20;;;3.00;;
7887;SDS011;3989;48.810;9.208;2023-02-17T00:36:38;4.50;;;3.37;;
7887;SDS011;3989;48.810;9.208;2023-02-17T00:39:06;3.17;;;2.83;;
7887;SDS011;3989;48.810;9.208;2023-02-17T00:41:33;7.07;;;3.70;;
7887;SDS011;3989;48.810;9.208;2023-02-17T00:43:59;4.47;;;3.10;;
7887;SDS011;3989;48.810;9.208;2023-02-17T00:46:26;4.80;;;3.23;;
7887;SDS011;3989;48.810;9.208;2023-02-17T00:48:53;3.60;;;2.83;;
7887;SDS011;3989;48.810;9.208;2023-02-17T00:51:20;4.60;;;3.03;;
7887;SDS011;3989;48.810;9.208;2023-02-17T00:53:47;3.93;;;3.10;;
7887;SDS011;3989;48.810;9.208;2023-02-17T00:56:16;3.57;;;3.00;;
7887;SDS011;3989;48.810;9.208;2023-02-17T00:58:42;4.00;;;3.70;;
7887;SDS011;3989;48.810;9.208;2023-02-17T01:01:10;4.77;;;3.47;;
7887;SDS011;3989;48.810;9.208;2023-02-17T01:03:37;3.50;;;3.20;;
7887;SDS011;3989;48.810;9.208;2023-02-17T01:06:05;4.20;;;3.20;;
7887;SDS011;3989;48.810;9.208;2023-02-17T01:08:33;4.20;;;3.23;;
7887;SDS011;3989;48.810;9.208;2023-02-17T01:11:00;2.87;;;2.67;;
7887;SDS011;3989;48.810;9.208;2023-02-17T01:13:28;3.27;;;3.00;;
7887;SDS011;3989;48.810;9.208;2023-02-17T01:15:54;3.83;;;2.90;;
7887;SDS011;3989;48.810;9.208;2023-02-17T01:18:22;3.17;;;2.87;;
7887;SDS011;3989;48.810;9.208;2023-02-17T01:20:49;6.60;;;2.80;;
7887;SDS011;3989;48.810;9.208;2023-02-17T01:23:16;6.00;;;3.10;;
7887;SDS011;3989;48.810;9.208;2023-02-17T01:25:43;3.03;;;2.83;;
7887;SDS011;3989;48.810;9.208;2023-02-17T01:28:13;3.80;;;2.93;;
7887;SDS011;3989;48.810;9.208;2023-02-17T01:30:42;4.33;;;3.83;;
7887;SDS011;3989;48.810;9.208;2023-02-17T01:33:08;3.30;;;2.93;;
7887;SDS011;3989;48.810;9.208;2023-02-17T01:35:35;2.97;;;2.77;;
7887;SDS011;3989;48.810;9.208;2023-02-17T01:38:02;3.33;;;2.73;;
7887;SDS011;3989;48.810;9.208;2023-02-17T01:40:28;2.93;;;2.70;;
7887;SDS011;3989;48.810;9.208;2023-02-17T01:42:55;3.70;;;2.43;;
7887;SDS011;3989;48.810;9.208;2023-02-17T01:45:32;4.67;;;2.87;;
7887;SDS011;3989;48.810;9.208;2023-02-17T01:48:08;4.60;;;3.13;;
7887;SDS011;3989;48.810;9.208;2023-02-17T01:50:39;2.80;;;2.60;;
7887;SDS011;3989;48.810;9.208;2023-02-17T01:53:08;4.30;;;3.63;;
7887;SDS011;3989;48.810;9.208;2023-02-17T01:55:38;3.90;;;3.23;;
7887;SDS011;3989;48.810;9.208;2023-02-17T01:58:06;3.23;;;2.90;;
7887;SDS011;3989;48.810;9.208;2023-02-17T02:00:37;4.63;;;2.70;;
7887;SDS011;3989;48.810;9.208;2023-02-17T02:03:05;4.50;;;3.20;;
7887;SDS011;3989;48.810;9.208;2023-02-17T02:05:35;3.87;;;2.63;;
7887;SDS011;3989;48.810;9.208;2023-02-17T02:08:04;5.53;;;2.47;;
7887;SDS011;3989;48.810;9.208;2023-02-17T02:10:31;2.80;;;2.60;;
7887;SDS011;3989;48.810;9.208;2023-02-17T02:12:57;3.17;;;2.80;;
7887;SDS011;3989;48.810;9.208;2023-02-17T02:15:25;6.07;;;3.00;;
7887;SDS011;3989;48.810;9.208;2023-02-17T02:21:06;4.93;;;2.70;;
7887;SDS011;3989;48.810;9.208;2023-02-17T02:24:14;2.77;;;2.57;;
7887;SDS011;3989;48.810;9.208;2023-02-17T02:29:46;3.17;;;2.87;;
7887;SDS011;3989;48.810;9.208;2023-02-17T02:32:29;4.17;;;2.47;;
7887;SDS011;3989;48.810;9.208;2023-02-17T02:35:10;3.57;;;2.83;;
7887;SDS011;3989;48.810;9.208;2023-02-17T02:37:41;3.70;;;3.10;;
7887;SDS011;3989;48.810;9.208;2023-02-17T02:40:15;2.67;;;2.47;;
7887;SDS011;3989;48.810;9.208;2023-02-17T02:42:45;4.13;;;3.13;;
7887;SDS011;3989;48.810;9.208;2023-02-17T02:45:12;2.87;;;2.27;;
7887;SDS011;3989;48.810;9.208;2023-02-17T02:47:44;2.83;;;2.60;;
7887;SDS011;3989;48.810;9.208;2023-02-17T02:50:14;3.53;;;3.23;;
7887;SDS011;3989;48.810;9.208;2023-02-17T02:52:46;6.37;;;3.03;;
7887;SDS011;3989;48.810;9.208;2023-02-17T02:55:23;3.77;;;2.67;;
7887;SDS011;3989;48.810;9.208;2023-02-17T02:57:58;3.87;;;2.53;;
7887;SDS011;3989;48.810;9.208;2023-02-17T03:00:32;4.00;;;2.90;;
7887;SDS011;3989;48.810;9.208;2023-02-17T03:03:07;3.53;;;2.60;;
7887;SDS011;3989;48.810;9.208;2023-02-17T03:05:41;4.27;;;2.60;;
7887;SDS011;3989;48.810;9.208;2023-02-17T03:08:18;3.17;;;2.60;;
7887;SDS011;3989;48.810;9.208;2023-02-17T03:10:50;3.93;;;2.80;;
7887;SDS011;3989;48.810;9.208;2023-02-17T03:13:19;6.17;;;3.00;;
7887;SDS011;3989;48.810;9.208;2023-02-17T03:15:46;3.67;;;2.90;;
7887;SDS011;3989;48.810;9.208;2023-02-17T03:18:14;2.77;;;2.47;;
7887;SDS011;3989;48.810;9.208;2023-02-17T03:20:42;3.63;;;2.70;;
7887;SDS011;3989;48.810;9.208;2023-02-17T03:23:14;5.70;;;2.27;;
7887;SDS011;3989;48.810;9.208;2023-02-17T03:25:40;6.20;;;2.60;;
7887;SDS011;3989;48.810;9.208;2023-02-17T03:28:09;2.73;;;2.50;;
7887;SDS011;3989;48.810;9.208;2023-02-17T03:30:35;2.73;;;2.20;;
7887;SDS011;3989;48.810;9.208;2023-02-17T03:33:02;5.20;;;2.90;;
7887;SDS011;3989;48.810;9.208;2023-02-17T03:38:25;2.73;;;2.37;;
7887;SDS011;3989;48.810;9.208;2023-02-17T03:40:53;3.00;;;2.80;;
7887;SDS011;3989;48.810;9.208;2023-02-17T03:45:57;4.33;;;2.43;;
7887;SDS011;3989;48.810;9.208;2023-02-17T03:48:44;2.73;;;2.53;;
7887;SDS011;3989;48.810;9.208;2023-02-17T03:51:19;4.13;;;3.33;;
7887;SDS011;3989;48.810;9.208;2023-02-17T03:56:22;6.10;;;2.57;;
7887;SDS011;3989;48.810;9.208;2023-02-17T03:58:49;9.13;;;4.07;;
7887;SDS011;3989;48.810;9.208;2023-02-17T04:01:16;5.60;;;3.23;;
7887;SDS011;3989;48.810;9.208;2023-02-17T04:03:42;8.37;;;2.70;;
7887;SDS011;3989;48.810;9.208;2023-02-17T04:06:09;3.80;;;2.60;;
7887;SDS011;3989;48.810;9.208;2023-02-17T04:08:42;7.47;;;2.67;;
7887;SDS011;3989;48.810;9.208;2023-02-17T04:11:09;2.90;;;2.50;;
7887;SDS011;3989;48.810;9.208;2023-02-17T04:13:36;5.63;;;2.57;;
7887;SDS011;3989;48.810;9.208;2023-02-17T04:16:06;4.43;;;3.10;;
7887;SDS011;3989;48.810;9.208;2023-02-17T04:18:34;4.83;;;2.57;;
7887;SDS011;3989;48.810;9.208;2023-02-17T04:21:12;2.87;;;2.30;;
7887;SDS011;3989;48.810;9.208;2023-02-17T04:23:39;3.07;;;2.77;;
7887;SDS011;3989;48.810;9.208;2023-02-17T04:26:10;4.60;;;2.77;;
7887;SDS011;3989;48.810;9.208;2023-02-17T04:28:37;3.97;;;2.80;;
7887;SDS011;3989;48.810;9.208;2023-02-17T04:31:05;3.50;;;3.20;;
7887;SDS011;3989;48.810;9.208;2023-02-17T04:33:32;3.80;;;2.70;;
7887;SDS011;3989;48.810;9.208;2023-02-17T04:35:59;8.17;;;2.93;;
7887;SDS011;3989;48.810;9.208;2023-02-17T04:38:26;6.53;;;2.50;;
7887;SDS011;3989;48.810;9.208;2023-02-17T04:40:53;4.53;;;2.73;;
7887;SDS011;3989;48.810;9.208;2023-02-17T04:43:24;3.70;;;2.70;;
7887;SDS011;3989;48.810;9.208;2023-02-17T04:45:52;5.67;;;2.73;;
7887;SDS011;3989;48.810;9.208;2023-02-17T04:48:19;3.20;;;2.90;;
7887;SDS011;3989;48.810;9.208;2023-02-17T04:50:46;7.80;;;3.03;;
7887;SDS011;3989;48.810;9.208;2023-02-17T04:53:12;6.53;;;3.23;;
7887;SDS011;3989;48.810;9.208;2023-02-17T04:55:40;6.47;;;2.40;;
7887;SDS011;3989;48.810;9.208;2023-02-17T04:58:07;2.87;;;2.53;;
7887;SDS011;3989;48.810;9.208;2023-02-17T05:00:36;4.33;;;3.07;;
7887;SDS011;3989;48.810;9.208;2023-02-17T05:03:03;3.87;;;2.73;;
7887;SDS011;3989;48.810;9.208;2023-02-17T05:05:30;4.63;;;2.80;;
7887;SDS011;3989;48.810;9.208;2023-02-17T05:07:56;3.30;;;2.80;;
7887;SDS011;3989;48.810;9.208;2023-02-17T05:12:59;3.57;;;3.03;;
7887;SDS011;3989;48.810;9.208;2023-02-17T05:15:27;2.97;;;2.70;;
7887;SDS011;3989;48.810;9.208;2023-02-17T05:17:55;4.57;;;2.97;;
7887;SDS011;3989;48.810;9.208;2023-02-17T05:20:22;3.47;;;2.83;;
7887;SDS011;3989;48.810;9.208;2023-02-17T05:22:49;8.60;;;3.30;;
7887;SDS011;3989;48.810;9.208;2023-02-17T05:25:15;4.70;;;3.83;;
7887;SDS011;3989;48.810;9.208;2023-02-17T05:27:42;5.07;;;2.90;;
7887;SDS011;3989;48.810;9.208;2023-02-17T05:30:09;6.07;;;3.17;;
7887;SDS011;3989;48.810;9.208;2023-02-17T05:32:37;3.57;;;2.83;;
7887;SDS011;3989;48.810;9.208;2023-02-17T05:35:08;3.90;;;2.80;;
7887;SDS011;3989;48.810;9.208;2023-02-17T05:37:38;4.33;;;2.90;;
7887;SDS011;3989;48.810;9.208;2023-02-17T05:42:40;3.63;;;2.90;;
7887;SDS011;3989;48.810;9.208;2023-02-17T05:45:13;3.60;;;3.30;;
7887;SDS011;3989;48.810;9.208;2023-02-17T05:47:39;3.13;;;2.93;;
7887;SDS011;3989;48.810;9.208;2023-02-17T05:50:21;3.67;;;3.37;;
7887;SDS011;3989;48.810;9.208;2023-02-17T05:52:48;4.33;;;2.60;;
7887;SDS011;3989;48.810;9.208;2023-02-17T05:55:18;7.67;;;6.00;;
7887;SDS011;3989;48.810;9.208;2023-02-17T05:58:09;5.30;;;4.50;;
7887;SDS011;3989;48.810;9.208;2023-02-17T06:00:43;6.53;;;4.10;;
7887;SDS011;3989;48.810;9.208;2023-02-17T06:03:21;4.10;;;2.93;;
7887;SDS011;3989;48.810;9.208;2023-02-17T06:13:44;4.20;;;3.07;;
7887;SDS011;3989;48.810;9.208;2023-02-17T06:16:14;4.00;;;2.77;;
7887;SDS011;3989;48.810;9.208;2023-02-17T06:18:40;2.60;;;2.40;;
7887;SDS011;3989;48.810;9.208;2023-02-17T06:21:07;8.30;;;4.40;;
7887;SDS011;3989;48.810;9.208;2023-02-17T06:23:37;4.37;;;2.60;;
7887;SDS011;3989;48.810;9.208;2023-02-17T06:26:06;4.03;;;2.60;;
7887;SDS011;3989;48.810;9.208;2023-02-17T06:28:33;3.17;;;2.47;;
7887;SDS011;3989;48.810;9.208;2023-02-17T06:31:02;2.70;;;2.50;;
7887;SDS011;3989;48.810;9.208;2023-02-17T06:33:29;2.87;;;2.60;;
7887;SDS011;3989;48.810;9.208;2023-02-17T06:35:55;5.00;;;2.67;;
7887;SDS011;3989;48.810;9.208;2023-02-17T06:38:22;4.10;;;2.87;;
7887;SDS011;3989;48.810;9.208;2023-02-17T06:40:49;3.00;;;2.73;;
7887;SDS011;3989;48.810;9.208;2023-02-17T06:43:16;3.37;;;2.90;;
7887;SDS011;3989;48.810;9.208;2023-02-17T06:45:43;3.87;;;3.00;;
7887;SDS011;3989;48.810;9.208;2023-02-17T06:48:11;2.70;;;2.50;;
7887;SDS011;3989;48.810;9.208;2023-02-17T06:50:37;2.77;;;2.30;;
7887;SDS011;3989;48.810;9.208;2023-02-17T06:53:04;4.03;;;2.30;;
7887;SDS011;3989;48.810;9.208;2023-02-17T06:55:31;2.60;;;2.40;;
7887;SDS011;3989;48.810;9.208;2023-02-17T06:57:59;2.60;;;2.50;;
7887;SDS011;3989;48.810;9.208;2023-02-17T07:00:26;2.63;;;2.47;;
7887;SDS011;3989;48.810;9.208;2023-02-17T07:02:53;3.27;;;2.93;;
7887;SDS011;3989;48.810;9.208;2023-02-17T07:05:21;2.60;;;2.40;;
7887;SDS011;3989;48.810;9.208;2023-02-17T07:07:47;2.53;;;2.33;;
7887;SDS011;3989;48.810;9.208;2023-02-17T07:10:17;2.57;;;2.40;;
7887;SDS011;3989;48.810;9.208;2023-02-17T07:12:44;3.53;;;2.80;;
7887;SDS011;3989;48.810;9.208;2023-02-17T07:15:10;3.53;;;2.63;;
7887;SDS011;3989;48.810;9.208;2023-02-17T07:17:37;3.30;;;2.50;;
7887;SDS011;3989;48.810;9.208;2023-02-17T07:20:04;4.33;;;2.43;;
7887;SDS011;3989;48.810;9.208;2023-02-17T07:22:34;3.43;;;2.63;;
7887;SDS011;3989;48.810;9.208;2023-02-17T07:25:01;4.27;;;2.90;;
7887;SDS011;3989;48.810;9.208;2023-02-17T07:27:28;3.07;;;2.50;;
7887;SDS011;3989;48.810;9.208;2023-02-17T07:29:55;2.63;;;2.43;;
7887;SDS011;3989;48.810;9.208;2023-02-17T07:32:22;2.67;;;2.43;;
7887;SDS011;3989;48.810;9.208;2023-02-17T07:34:48;2.47;;;2.27;;
7887;SDS011;3989;48.810;9.208;2023-02-17T07:37:15;3.27;;;2.30;;
7887;SDS011;3989;48.810;9.208;2023-02-17T07:39:45;2.43;;;2.23;;
7887;SDS011;3989;48.810;9.208;2023-02-17T07:42:12;3.67;;;2.30;;
7887;SDS011;3989;48.810;9.208;2023-02-17T07:44:38;2.27;;;2.07;;
7887;SDS011;3989;48.810;9.208;2023-02-17T07:47:05;5.00;;;2.90;;
7887;SDS011;3989;48.810;9.208;2023-02-17T07:49:31;2.93;;;2.47;;
7887;SDS011;3989;48.810;9.208;2023-02-17T07:51:58;2.47;;;2.27;;
7887;SDS011;3989;48.810;9.208;2023-02-17T07:54:25;3.70;;;2.10;;
7887;SDS011;3989;48.810;9.208;2023-02-17T07:56:53;2.17;;;2.00;;
7887;SDS011;3989;48.810;9.208;2023-02-17T07:59:19;2.27;;;1.83;;
7887;SDS011;3989;48.810;9.208;2023-02-17T08:01:46;3.47;;;2.20;;
7887;SDS011;3989;48.810;9.208;2023-02-17T08:04:13;2.80;;;2.03;;
7887;SDS011;3989;48.810;9.208;2023-02-17T08:06:41;2.20;;;2.00;;
7887;SDS011;3989;48.810;9.208;2023-02-17T08:09:08;2.27;;;2.07;;
7887;SDS011;3989;48.810;9.208;2023-02-17T08:11:54;2.10;;;2.00;;
7887;SDS011;3989;48.810;9.208;2023-02-17T08:14:38;2.50;;;2.20;;
7887;SDS011;3989;48.810;9.208;2023-02-17T08:17:05;2.23;;;2.10;;
7887;SDS011;3989;48.810;9.208;2023-02-17T08:19:32;4.40;;;1.80;;
7887;SDS011;3989;48.810;9.208;2023-02-17T08:21:59;5.43;;;2.17;;
7887;SDS011;3989;48.810;9.208;2023-02-17T08:24:25;2.47;;;2.27;;
7887;SDS011;3989;48.810;9.208;2023-02-17T08:26:53;3.07;;;2.03;;
7887;SDS011;3989;48.810;9.208;2023-02-17T08:29:20;2.20;;;2.07;;
7887;SDS011;3989;48.810;9.208;2023-02-17T08:31:49;2.80;;;2.60;;
7887;SDS011;3989;48.810;9.208;2023-02-17T08:34:17;3.43;;;2.10;;
7887;SDS011;3989;48.810;9.208;2023-02-17T08:36:44;3.63;;;2.23;;
7887;SDS011;3989;48.810;9.208;2023-02-17T08:39:11;2.57;;;2.23;;
7887;SDS011;3989;48.810;9.208;2023-02-17T08:41:40;2.23;;;1.80;;
7887;SDS011;3989;48.810;9.208;2023-02-17T08:44:09;4.50;;;2.77;;
7887;SDS011;3989;48.810;9.208;2023-02-17T08:46:37;2.97;;;1.70;;
7887;SDS011;3989;48.810;9.208;2023-02-17T08:49:04;1.80;;;1.70;;
7887;SDS011;3989;48.810;9.208;2023-02-17T08:51:31;1.90;;;1.80;;
7887;SDS011;3989;48.810;9.208;2023-02-17T08:53:59;1.90;;;1.80;;
7887;SDS011;3989;48.810;9.208;2023-02-17T08:56:27;2.83;;;2.30;;
7887;SDS011;3989;48.810;9.208;2023-02-17T08:58:55;2.43;;;1.73;;
7887;SDS011;3989;48.810;9.208;2023-02-17T09:01:23;1.80;;;1.70;;
7887;SDS011;3989;48.810;9.208;2023-02-17T09:03:50;1.80;;;1.70;;
7887;SDS011;3989;48.810;9.208;2023-02-17T09:06:18;1.87;;;1.77;;
7887;SDS011;3989;48.810;9.208;2023-02-17T09:08:45;2.00;;;1.90;;
7887;SDS011;3989;48.810;9.208;2023-02-17T09:11:12;2.00;;;1.90;;
7887;SDS011;3989;48.810;9.208;2023-02-17T09:13:41;2.10;;;2.00;;
7887;SDS011;3989;48.810;9.208;2023-02-17T09:16:08;1.60;;;1.50;;
7887;SDS011;3989;48.810;9.208;2023-02-17T09:18:36;2.43;;;1.90;;
7887;SDS011;3989;48.810;9.208;2023-02-17T09:21:04;2.83;;;2.07;;
7887;SDS011;3989;48.810;9.208;2023-02-17T09:23:32;2.27;;;2.10;;
7887;SDS011;3989;48.810;9.208;2023-02-17T09:26:01;2.93;;;1.63;;
7887;SDS011;3989;48.810;9.208;2023-02-17T09:28:30;1.83;;;1.70;;
7887;SDS011;3989;48.810;9.208;2023-02-17T09:30:57;1.83;;;1.73;;
7887;SDS011;3989;48.810;9.208;2023-02-17T09:33:24;1.67;;;1.53;;
7887;SDS011;3989;48.810;9.208;2023-02-17T09:35:52;2.10;;;1.90;;
7887;SDS011;3989;48.810;9.208;2023-02-17T09:38:19;3.50;;;1.83;;
7887;SDS011;3989;48.810;9.208;2023-02-17T09:40:46;1.50;;;1.40;;
7887;SDS011;3989;48.810;9.208;2023-02-17T09:43:15;2.37;;;2.17;;
7887;SDS011;3989;48.810;9.208;2023-02-17T09:45:45;1.70;;;1.60;;
7887;SDS011;3989;48.810;9.208;2023-02-17T09:48:15;3.00;;;2.10;;
7887;SDS011;3989;48.810;9.208;2023-02-17T09:50:47;1.70;;;1.60;;
7887;SDS011;3989;48.810;9.208;2023-02-17T09:53:23;1.43;;;1.33;;
7887;SDS011;3989;48.810;9.208;2023-02-17T09:55:54;1.77;;;1.30;;
7887;SDS011;3989;48.810;9.208;2023-02-17T09:58:24;2.03;;;1.47;;
7887;SDS011;3989;48.810;9.208;2023-02-17T10:00:57;1.60;;;1.50;;
7887;SDS011;3989;48.810;9.208;2023-02-17T10:03:29;1.60;;;1.50;;
7887;SDS011;3989;48.810;9.208;2023-02-17T10:06:03;1.67;;;1.57;;
7887;SDS011;3989;48.810;9.208;2023-02-17T10:08:38;1.60;;;1.50;;
7887;SDS011;3989;48.810;9.208;2023-02-17T10:11:10;1.60;;;1.50;;
7887;SDS011;3989;48.810;9.208;2023-02-17T10:13:43;2.67;;;1.40;;
7887;SDS011;3989;48.810;9.208;2023-02-17T10:16:13;1.77;;;1.67;;
7887;SDS011;3989;48.810;9.208;2023-02-17T10:18:47;1.80;;;1.70;;
7887;SDS011;3989;48.810;9.208;2023-02-17T10:21:26;2.50;;;1.40;;
7887;SDS011;3989;48.810;9.208;2023-02-17T10:23:56;1.70;;;1.60;;
7887;SDS011;3989;48.810;9.208;2023-02-17T10:26:25;2.10;;;2.00;;
7887;SDS011;3989;48.810;9.208;2023-02-17T10:29:04;3.10;;;1.50;;
7887;SDS011;3989;48.810;9.208;2023-02-17T10:31:36;1.60;;;1.50;;
7887;SDS011;3989;48.810;9.208;2023-02-17T10:34:11;1.87;;;1.47;;
7887;SDS011;3989;48.810;9.208;2023-02-17T10:36:47;2.00;;;1.50;;
7887;SDS011;3989;48.810;9.208;2023-02-17T10:39:27;1.93;;;1.43;;
7887;SDS011;3989;48.810;9.208;2023-02-17T10:42:13;3.23;;;1.53;;
7887;SDS011;3989;48.810;9.208;2023-02-17T10:45:00;1.50;;;1.40;;
7887;SDS011;3989;48.810;9.208;2023-02-17T10:47:29;1.40;;;1.30;;
7887;SDS011;3989;48.810;9.208;2023-02-17T10:49:56;1.37;;;1.30;;
7887;SDS011;3989;48.810;9.208;2023-02-17T10:52:30;1.10;;;1.10;;
7887;SDS011;3989;48.810;9.208;2023-02-17T10:55:02;2.30;;;1.00;;
7887;SDS011;3989;48.810;9.208;2023-02-17T10:57:32;1.97;;;1.43;;
7887;SDS011;3989;48.810;9.208;2023-02-17T11:00:03;1.30;;;1.30;;
7887;SDS011;3989;48.810;9.208;2023-02-17T11:02:33;1.20;;;1.20;;
7887;SDS011;3989;48.810;9.208;2023-02-17T11:05:03;2.77;;;1.23;;
7887;SDS011;3989;48.810;9.208;2023-02-17T11:07:32;1.30;;;1.20;;
7887;SDS011;3989;48.810;9.208;2023-02-17T11:10:01;1.60;;;1.50;;
7887;SDS011;3989;48.810;9.208;2023-02-17T11:12:32;1.10;;;1.00;;
7887;SDS011;3989;48.810;9.208;2023-02-17T11:15:07;1.47;;;1.20;;
7887;SDS011;3989;48.810;9.208;2023-02-17T11:17:41;1.00;;;1.00;;
7887;SDS011;3989;48.810;9.208;2023-02-17T11:20:25;4.00;;;1.20;;
7887;SDS011;3989;48.810;9.208;2023-02-17T11:23:01;1.20;;;1.13;;
7887;SDS011;3989;48.810;9.208;2023-02-17T11:25:32;0.70;;;0.70;;
7887;SDS011;3989;48.810;9.208;2023-02-17T11:28:02;0.93;;;0.87;;
7887;SDS011;3989;48.810;9.208;2023-02-17T11:30:33;0.87;;;0.87;;
7887;SDS011;3989;48.810;9.208;2023-02-17T11:33:09;3.30;;;0.90;;
7887;SDS011;3989;48.810;9.208;2023-02-17T11:35:43;0.60;;;0.60;;
7887;SDS011;3989;48.810;9.208;2023-02-17T11:38:16;0.70;;;0.70;;
7887;SDS011;3989;48.810;9.208;2023-02-17T11:40:50;0.80;;;0.80;;
7887;SDS011;3989;48.810;9.208;2023-02-17T11:43:19;1.03;;;0.40;;
7887;SDS011;3989;48.810;9.208;2023-02-17T11:45:48;1.50;;;0.70;;
7887;SDS011;3989;48.810;9.208;2023-02-17T11:48:28;0.57;;;0.57;;
7887;SDS011;3989;48.810;9.208;2023-02-17T11:51:05;0.60;;;0.60;;
7887;SDS011;3989;48.810;9.208;2023-02-17T11:53:41;1.40;;;0.63;;
7887;SDS011;3989;48.810;9.208;2023-02-17T11:56:16;0.63;;;0.63;;
7887;SDS011;3989;48.810;9.208;2023-02-17T11:58:50;0.60;;;0.60;;
7887;SDS011;3989;48.810;9.208;2023-02-17T12:01:31;0.60;;;0.60;;
7887;SDS011;3989;48.810;9.208;2023-02-17T12:04:19;0.50;;;0.50;;
7887;SDS011;3989;48.810;9.208;2023-02-17T12:06:54;0.60;;;0.60;;
7887;SDS011;3989;48.810;9.208;2023-02-17T12:09:28;1.13;;;0.60;;
7887;SDS011;3989;48.810;9.208;2023-02-17T12:12:09;0.87;;;0.87;;
7887;SDS011;3989;48.810;9.208;2023-02-17T12:14:51;0.60;;;0.60;;
7887;SDS011;3989;48.810;9.208;2023-02-17T12:17:28;0.70;;;0.70;;
7887;SDS011;3989;48.810;9.208;2023-02-17T12:20:09;0.90;;;0.70;;
7887;SDS011;3989;48.810;9.208;2023-02-17T12:22:56;0.77;;;0.70;;
7887;SDS011;3989;48.810;9.208;2023-02-17T12:25:32;2.70;;;1.27;;
7887;SDS011;3989;48.810;9.208;2023-02-17T12:28:09;0.70;;;0.70;;
7887;SDS011;3989;48.810;9.208;2023-02-17T12:30:56;2.17;;;0.90;;
7887;SDS011;3989;48.810;9.208;2023-02-17T12:33:35;0.70;;;0.70;;
7887;SDS011;3989;48.810;9.208;2023-02-17T12:36:12;0.80;;;0.80;;
7887;SDS011;3989;48.810;9.208;2023-02-17T12:38:41;0.70;;;0.70;;
7887;SDS011;3989;48.810;9.208;2023-02-17T12:41:12;2.90;;;1.00;;
7887;SDS011;3989;48.810;9.208;2023-02-17T12:43:44;0.60;;;0.60;;
7887;SDS011;3989;48.810;9.208;2023-02-17T12:46:15;0.70;;;0.70;;
7887;SDS011;3989;48.810;9.208;2023-02-17T12:48:46;1.27;;;0.87;;
7887;SDS011;3989;48.810;9.208;2023-02-17T12:51:17;1.23;;;0.80;;
7887;SDS011;3989;48.810;9.208;2023-02-17T12:53:49;0.97;;;0.90;;
7887;SDS011;3989;48.810;9.208;2023-02-17T12:56:31;0.60;;;0.60;;
7887;SDS011;3989;48.810;9.208;2023-02-17T12:59:09;1.90;;;0.70;;
7887;SDS011;3989;48.810;9.208;2023-02-17T13:01:43;0.68;;;0.68;;
7887;SDS011;3989;48.810;9.208;2023-02-17T13:04:16;2.45;;;0.80;;
7887;SDS011;3989;48.810;9.208;2023-02-17T13:06:45;0.55;;;0.55;;
7887;SDS011;3989;48.810;9.208;2023-02-17T13:09:17;0.60;;;0.60;;
7887;SDS011;3989;48.810;9.208;2023-02-17T13:11:51;1.40;;;0.70;;
7887;SDS011;3989;48.810;9.208;2023-02-17T13:14:24;1.27;;;0.70;;
7887;SDS011;3989;48.810;9.208;2023-02-17T13:16:53;0.53;;;0.53;;
7887;SDS011;3989;48.810;9.208;2023-02-17T13:19:26;0.60;;;0.60;;
7887;SDS011;3989;48.810;9.208;2023-02-17T13:21:55;0.50;;;0.50;;
7887;SDS011;3989;48.810;9.208;2023-02-17T13:24:30;0.70;;;0.70;;
7887;SDS011;3989;48.810;9.208;2023-02-17T13:27:09;0.50;;;0.50;;
7887;SDS011;3989;48.810;9.208;2023-02-17T13:29:37;0.70;;;0.70;;
7887;SDS011;3989;48.810;9.208;2023-02-17T13:32:05;0.60;;;0.60;;
7887;SDS011;3989;48.810;9.208;2023-02-17T13:34:35;0.70;;;0.70;;
7887;SDS011;3989;48.810;9.208;2023-02-17T13:37:14;0.60;;;0.60;;
7887;SDS011;3989;48.810;9.208;2023-02-17T13:39:44;0.80;;;0.80;;
7887;SDS011;3989;48.810;9.208;2023-02-17T13:42:27;0.90;;;0.90;;
7887;SDS011;3989;48.810;9.208;2023-02-17T13:44:58;0.77;;;0.77;;
7887;SDS011;3989;48.810;9.208;2023-02-17T13:47:27;2.43;;;0.73;;
7887;SDS011;3989;48.810;9.208;2023-02-17T13:49:59;0.80;;;0.80;;
7887;SDS011;3989;48.810;9.208;2023-02-17T13:52:26;2.10;;;0.90;;
7887;SDS011;3989;48.810;9.208;2023-02-17T13:54:54;0.70;;;0.70;;
7887;SDS011;3989;48.810;9.208;2023-02-17T13:57:23;0.80;;;0.80;;
7887;SDS011;3989;48.810;9.208;2023-02-17T14:00:03;0.70;;;0.70;;
7887;SDS011;3989;48.810;9.208;2023-02-17T14:02:31;0.70;;;0.70;;
7887;SDS011;3989;48.810;9.208;2023-02-17T14:04:58;0.40;;;0.40;;
7887;SDS011;3989;48.810;9.208;2023-02-17T14:07:26;0.60;;;0.60;;
7887;SDS011;3989;48.810;9.208;2023-02-17T14:09:53;1.57;;;1.00;;
7887;SDS011;3989;48.810;9.208;2023-02-17T14:12:21;0.87;;;0.87;;
7887;SDS011;3989;48.810;9.208;2023-02-17T14:14:50;1.33;;;1.30;;
7887;SDS011;3989;48.810;9.208;2023-02-17T14:17:26;3.70;;;3.00;;
7887;SDS011;3989;48.810;9.208;2023-02-17T14:19:54;0.90;;;0.90;;
7887;SDS011;3989;48.810;9.208;2023-02-17T14:22:26;2.90;;;1.60;;
7887;SDS011;3989;48.810;9.208;2023-02-17T14:24:59;1.00;;;0.97;;
7887;SDS011;3989;48.810;9.208;2023-02-17T14:27:27;1.13;;;0.80;;
7887;SDS011;3989;48.810;9.208;2023-02-17T14:29:55;5.73;;;1.07;;
7887;SDS011;3989;48.810;9.208;2023-02-17T14:32:25;1.70;;;0.90;;
7887;SDS011;3989;48.810;9.208;2023-02-17T14:35:04;1.17;;;0.97;;
7887;SDS011;3989;48.810;9.208;2023-02-17T14:37:32;0.83;;;0.83;;
7887;SDS011;3989;48.810;9.208;2023-02-17T14:40:01;0.73;;;0.73;;
7887;SDS011;3989;48.810;9.208;2023-02-17T14:42:28;1.23;;;0.80;;
7887;SDS011;3989;48.810;9.208;2023-02-17T14:44:56;2.30;;;0.73;;
7887;SDS011;3989;48.810;9.208;2023-02-17T14:47:23;1.03;;;0.70;;
7887;SDS011;3989;48.810;9.208;2023-02-17T14:49:50;0.80;;;0.80;;
7887;SDS011;3989;48.810;9.208;2023-02-17T14:52:17;0.60;;;0.60;;
7887;SDS011;3989;48.810;9.208;2023-02-17T14:54:45;0.93;;;0.93;;
7887;SDS011;3989;48.810;9.208;2023-02-17T14:57:13;0.70;;;0.63;;
7887;SDS011;3989;48.810;9.208;2023-02-17T14:59:42;0.80;;;0.80;;
7887;SDS011;3989;48.810;9.208;2023-02-17T15:02:13;1.27;;;0.90;;
7887;SDS011;3989;48.810;9.208;2023-02-17T15:04:41;1.20;;;1.10;;
7887;SDS011;3989;48.810;9.208;2023-02-17T15:07:08;0.97;;;0.97;;
7887;SDS011;3989;48.810;9.208;2023-02-17T15:09:38;2.30;;;2.10;;
7887;SDS011;3989;48.810;9.208;2023-02-17T15:12:08;3.30;;;2.80;;
7887;SDS011;3989;48.810;9.208;2023-02-17T15:14:39;2.80;;;2.60;;
7887;SDS011;3989;48.810;9.208;2023-02-17T15:17:06;2.33;;;1.83;;
7887;SDS011;3989;48.810;9.208;2023-02-17T15:19:34;3.33;;;1.07;;
7887;SDS011;3989;48.810;9.208;2023-02-17T15:22:01;1.10;;;1.10;;
7887;SDS011;3989;48.810;9.208;2023-02-17T15:24:30;1.07;;;1.07;;
7887;SDS011;3989;48.810;9.208;2023-02-17T15:26:59;1.50;;;1.40;;
7887;SDS011;3989;48.810;9.208;2023-02-17T15:29:27;1.50;;;1.40;;
7887;SDS011;3989;48.810;9.208;2023-02-17T15:31:54;1.40;;;1.30;;
7887;SDS011;3989;48.810;9.208;2023-02-17T15:34:25;1.27;;;1.10;;
7887;SDS011;3989;48.810;9.208;2023-02-17T15:36:56;1.40;;;1.40;;
7887;SDS011;3989;48.810;9.208;2023-02-17T15:39:22;1.27;;;1.20;;
7887;SDS011;3989;48.810;9.208;2023-02-17T15:41:49;1.47;;;1.37;;
7887;SDS011;3989;48.810;9.208;2023-02-17T15:44:19;1.90;;;1.80;;
7887;SDS011;3989;48.810;9.208;2023-02-17T15:46:48;1.70;;;1.60;;
7887;SDS011;3989;48.810;9.208;2023-02-17T15:49:15;2.13;;;1.70;;
7887;SDS011;3989;48.810;9.208;2023-02-17T15:51:42;3.23;;;1.50;;
7887;SDS011;3989;48.810;9.208;2023-02-17T15:54:21;1.90;;;1.67;;
7887;SDS011;3989;48.810;9.208;2023-02-17T15:56:48;2.00;;;1.80;;
7887;SDS011;3989;48.810;9.208;2023-02-17T15:59:17;1.90;;;1.80;;
7887;SDS011;3989;48.810;9.208;2023-02-17T16:01:46;2.20;;;1.77;;